Time;durP1;ratioP1;P1;durP2;ratioP2;P2;SDS_P1;SDS_P2;PMS_P1;PMS_P2;Temp;Humidity;BMP_temperature;BMP_pressure;BME280_temperature;BME280_humidity;BME280_pressure;Samples;Min_cycle;Max_cycle;Signal;HPM_P1;HPM_P2
2022/10/17 00:01:55;;;;;;;;;7.75;5.25;;;;;;;;5062900;28;62040;-76
2022/10/17 00:04:20;;;;;;;;;9.00;6.00;;;;;;;;5062614;28;61714;-76
2022/10/17 00:06:45;;;;;;;;;6.75;5.00;;;;;;;;5063045;28;61892;-76
2022/10/17 00:09:11;;;;;;;;;11.00;7.75;;;;;;;;5062014;28;62031;-76
2022/10/17 00:11:36;;;;;;;;;9.50;6.00;;;;;;;;5063012;28;61894;-76
2022/10/17 00:14:01;;;;;;;;;7.50;4.50;;;;;;;;5063068;28;61843;-76
2022/10/17 00:16:28;;;;;;;;;8.00;7.00;;;;;;;;5062952;28;61755;-76
2022/10/17 00:18:54;;;;;;;;;6.00;6.00;;;;;;;;5043421;28;63688;-76
2022/10/17 00:21:19;;;;;;;;;7.25;6.00;;;;;;;;5025170;28;61738;-76
2022/10/17 00:23:45;;;;;;;;;5.75;5.00;;;;;;;;5042653;28;61866;-76
2022/10/17 00:26:10;;;;;;;;;7.00;7.00;;;;;;;;5042807;28;62249;-76
2022/10/17 00:28:36;;;;;;;;;6.25;5.75;;;;;;;;5041925;28;62833;-76
2022/10/17 00:31:02;;;;;;;;;7.25;7.00;;;;;;;;5042581;28;61794;-76
2022/10/17 00:33:29;;;;;;;;;9.00;6.25;;;;;;;;5041986;28;62000;-77
2022/10/17 00:36:02;;;;;;;;;7.00;6.50;;;;;;;;5042668;28;61942;-76
2022/10/17 00:38:27;;;;;;;;;6.75;6.75;;;;;;;;5041550;28;62215;-76
2022/10/17 00:40:52;;;;;;;;;5.75;5.00;;;;;;;;5042214;28;61687;-76
2022/10/17 00:43:18;;;;;;;;;7.00;5.25;;;;;;;;5042097;28;61804;-76
2022/10/17 00:45:44;;;;;;;;;6.50;5.75;;;;;;;;5042548;28;61684;-75
2022/10/17 00:48:10;;;;;;;;;7.00;7.00;;;;;;;;5053703;28;61680;-76
2022/10/17 00:50:37;;;;;;;;;7.75;7.50;;;;;;;;5044056;28;61796;-76
2022/10/17 00:53:03;;;;;;;;;7.25;6.50;;;;;;;;5062340;28;61775;-76
2022/10/17 00:55:32;;;;;;;;;7.00;6.67;;;;;;;;5062162;28;61856;-76
2022/10/17 00:57:59;;;;;;;;;6.50;6.25;;;;;;;;5061908;28;62029;-75
2022/10/17 01:00:24;;;;;;;;;7.00;6.00;;;;;;;;5061946;28;61949;-76
2022/10/17 01:02:49;;;;;;;;;6.00;5.00;;;;;;;;5061998;28;62040;-76
2022/10/17 01:05:15;;;;;;;;;6.00;5.00;;;;;;;;5062423;28;61904;-76
2022/10/17 01:07:41;;;;;;;;;8.50;6.00;;;;;;;;5047049;28;65181;-76
2022/10/17 01:10:07;;;;;;;;;4.00;4.00;;;;;;;;5065729;28;61948;-76
2022/10/17 01:12:48;;;;;;;;;4.25;4.25;;;;;;;;5065369;28;61753;-77
2022/10/17 01:15:22;;;;;;;;;8.25;7.00;;;;;;;;5065497;28;61880;-76
2022/10/17 01:18:02;;;;;;;;;6.25;4.75;;;;;;;;5064606;28;62015;-76
2022/10/17 01:20:27;;;;;;;;;9.50;5.50;;;;;;;;5042264;28;61923;-76
2022/10/17 01:22:56;;;;;;;;;8.50;5.25;;;;;;;;5045189;28;61744;-76
2022/10/17 01:25:50;;;;;;;;;7.00;4.00;;;;;;;;5045529;28;62369;-76
2022/10/17 01:28:15;;;;;;;;;7.75;6.25;;;;;;;;5044632;28;61876;-76
2022/10/17 01:30:40;;;;;;;;;9.00;7.25;;;;;;;;5045077;28;61963;-76
2022/10/17 01:33:32;;;;;;;;;8.00;6.00;;;;;;;;5044837;28;62125;-76
2022/10/17 01:36:21;;;;;;;;;6.00;5.00;;;;;;;;5041550;28;62365;-76
2022/10/17 01:38:48;;;;;;;;;5.75;5.75;;;;;;;;4943625;28;61975;-76
2022/10/17 01:41:45;;;;;;;;;6.00;5.00;;;;;;;;4944186;28;61871;-76
2022/10/17 01:44:11;;;;;;;;;8.25;5.75;;;;;;;;4892200;28;62158;-76
2022/10/17 01:46:37;;;;;;;;;5.50;4.75;;;;;;;;4943853;28;62150;-76
2022/10/17 01:49:04;;;;;;;;;6.00;5.25;;;;;;;;4942940;28;64013;-76
2022/10/17 01:51:34;;;;;;;;;10.00;6.50;;;;;;;;4943945;28;61807;-76
2022/10/17 01:54:03;;;;;;;;;5.75;4.75;;;;;;;;4944069;28;62044;-76
2022/10/17 01:56:30;;;;;;;;;8.75;7.50;;;;;;;;4943785;28;62094;-76
2022/10/17 01:58:59;;;;;;;;;6.25;5.00;;;;;;;;4943469;28;62025;-76
2022/10/17 02:01:25;;;;;;;;;8.00;6.00;;;;;;;;4943642;28;62010;-76
2022/10/17 02:03:52;;;;;;;;;6.00;6.00;;;;;;;;4943685;28;61861;-76
2022/10/17 02:06:17;;;;;;;;;5.50;4.75;;;;;;;;4927594;28;61778;-76
2022/10/17 02:08:44;;;;;;;;;5.00;4.50;;;;;;;;4942943;28;63766;-76
2022/10/17 02:11:15;;;;;;;;;8.25;5.00;;;;;;;;4943820;28;61881;-76
2022/10/17 02:13:40;;;;;;;;;5.50;4.50;;;;;;;;4927446;28;61963;-76
2022/10/17 02:16:19;;;;;;;;;6.25;5.75;;;;;;;;5006560;28;61898;-76
2022/10/17 02:19:02;;;;;;;;;4.50;3.00;;;;;;;;5042876;28;61942;-76
2022/10/17 02:21:32;;;;;;;;;5.33;4.33;;;;;;;;5025755;28;61840;-76
2022/10/17 02:24:08;;;;;;;;;6.50;5.00;;;;;;;;5026627;28;61987;-76
2022/10/17 02:26:38;;;;;;;;;5.75;5.00;;;;;;;;5044400;28;61708;-76
2022/10/17 02:29:17;;;;;;;;;5.00;3.50;;;;;;;;5043641;28;61914;-76
2022/10/17 02:32:17;;;;;;;;;5.00;4.00;;;;;;;;5024328;28;61916;-76
2022/10/17 02:34:46;;;;;;;;;7.00;5.67;;;;;;;;4924047;28;61818;-76
2022/10/17 02:37:14;;;;;;;;;5.75;5.75;;;;;;;;4924299;28;62656;-76
2022/10/17 02:39:39;;;;;;;;;8.25;6.25;;;;;;;;4907321;28;65061;-76
2022/10/17 02:42:06;;;;;;;;;9.33;6.00;;;;;;;;4923868;28;62081;-76
2022/10/17 02:44:32;;;;;;;;;6.75;3.25;;;;;;;;4923789;28;62101;-76
2022/10/17 02:47:10;;;;;;;;;5.75;5.50;;;;;;;;4924004;28;61917;-76
2022/10/17 02:49:38;;;;;;;;;5.75;5.75;;;;;;;;4946489;28;63571;-76
2022/10/17 02:52:14;;;;;;;;;9.25;7.75;;;;;;;;4962638;28;61747;-76
2022/10/17 02:54:46;;;;;;;;;7.75;5.25;;;;;;;;4962175;28;61830;-76
2022/10/17 02:57:32;;;;;;;;;9.00;7.00;;;;;;;;4962820;28;61953;-76
2022/10/17 02:59:59;;;;;;;;;4.25;4.25;;;;;;;;4951447;28;64155;-76
2022/10/17 03:02:24;;;;;;;;;7.75;6.25;;;;;;;;4961920;28;61874;-76
2022/10/17 03:04:49;;;;;;;;;6.75;5.25;;;;;;;;4962441;28;62351;-76
2022/10/17 03:07:15;;;;;;;;;5.67;5.00;;;;;;;;4962871;28;61987;-76
2022/10/17 03:09:41;;;;;;;;;6.25;4.25;;;;;;;;5016288;28;62836;-76
2022/10/17 03:12:07;;;;;;;;;7.75;6.25;;;;;;;;5023845;28;61879;-76
2022/10/17 03:14:32;;;;;;;;;7.25;5.00;;;;;;;;5023280;28;61860;-76
2022/10/17 03:16:57;;;;;;;;;8.25;5.00;;;;;;;;5024010;28;61768;-76
2022/10/17 03:19:23;;;;;;;;;7.00;5.25;;;;;;;;5022768;28;61864;-76
2022/10/17 03:21:48;;;;;;;;;5.25;5.00;;;;;;;;5016333;28;61937;-76
2022/10/17 03:24:13;;;;;;;;;5.50;3.75;;;;;;;;5003940;28;62106;-76
2022/10/17 03:26:39;;;;;;;;;5.50;5.50;;;;;;;;5003409;28;61754;-76
2022/10/17 03:29:04;;;;;;;;;6.50;5.00;;;;;;;;5001564;28;64578;-76
2022/10/17 03:31:31;;;;;;;;;6.67;5.67;;;;;;;;5003613;28;61753;-76
2022/10/17 03:33:56;;;;;;;;;5.00;5.00;;;;;;;;5003566;28;61967;-76
2022/10/17 03:36:22;;;;;;;;;5.67;4.33;;;;;;;;5003543;28;61856;-76
2022/10/17 03:38:47;;;;;;;;;5.75;4.75;;;;;;;;5002853;28;62717;-76
2022/10/17 03:41:12;;;;;;;;;4.25;4.00;;;;;;;;5002221;28;61796;-76
2022/10/17 03:43:38;;;;;;;;;5.00;4.50;;;;;;;;5003196;28;61792;-76
2022/10/17 03:46:04;;;;;;;;;5.50;5.50;;;;;;;;5003734;28;61669;-77
2022/10/17 03:48:33;;;;;;;;;6.67;6.00;;;;;;;;5001081;28;64126;-76
2022/10/17 03:51:00;;;;;;;;;5.00;4.00;;;;;;;;5013625;28;61991;-76
2022/10/17 03:53:25;;;;;;;;;6.00;4.00;;;;;;;;5052409;28;61922;-76
2022/10/17 03:55:50;;;;;;;;;3.50;3.50;;;;;;;;5044626;28;61935;-76
2022/10/17 03:58:15;;;;;;;;;6.00;4.50;;;;;;;;5062748;28;62623;-76
2022/10/17 04:00:41;;;;;;;;;4.00;4.00;;;;;;;;5062351;28;61828;-76
2022/10/17 04:03:06;;;;;;;;;6.00;4.00;;;;;;;;5063139;28;62143;-76
2022/10/17 04:05:31;;;;;;;;;6.00;3.00;;;;;;;;5063490;28;61784;-76
2022/10/17 04:07:56;;;;;;;;;5.50;4.75;;;;;;;;5062268;28;62187;-76
2022/10/17 04:10:21;;;;;;;;;6.50;4.00;;;;;;;;5062912;28;62930;-76
2022/10/17 04:12:47;;;;;;;;;9.75;4.50;;;;;;;;5062976;28;61927;-76
2022/10/17 04:15:12;;;;;;;;;4.50;4.50;;;;;;;;5063242;28;61766;-75
2022/10/17 04:17:37;;;;;;;;;8.25;5.50;;;;;;;;5061990;28;62031;-76
2022/10/17 04:20:03;;;;;;;;;6.00;5.00;;;;;;;;5062694;28;62075;-76
2022/10/17 04:22:28;;;;;;;;;7.00;5.00;;;;;;;;5042520;28;61683;-76
2022/10/17 04:24:53;;;;;;;;;5.25;4.00;;;;;;;;5042318;28;61766;-76
2022/10/17 04:27:19;;;;;;;;;5.75;5.75;;;;;;;;5024113;28;63701;-76
2022/10/17 04:29:44;;;;;;;;;7.00;4.00;;;;;;;;5042439;28;62211;-76
2022/10/17 04:32:09;;;;;;;;;4.00;4.00;;;;;;;;5024411;28;61771;-75
2022/10/17 04:34:35;;;;;;;;;8.25;5.75;;;;;;;;5024493;28;62112;-76
2022/10/17 04:37:00;;;;;;;;;7.25;5.50;;;;;;;;5041657;28;62247;-76
2022/10/17 04:39:34;;;;;;;;;4.50;3.50;;;;;;;;5042104;28;61961;-75
2022/10/17 04:41:59;;;;;;;;;5.75;4.75;;;;;;;;5041597;28;61714;-76
2022/10/17 04:44:25;;;;;;;;;4.75;4.75;;;;;;;;5042402;28;61794;-76
2022/10/17 04:46:50;;;;;;;;;4.25;4.00;;;;;;;;5041442;28;61720;-76
2022/10/17 04:49:15;;;;;;;;;6.00;5.00;;;;;;;;5041423;28;61772;-76
2022/10/17 04:51:41;;;;;;;;;6.75;4.25;;;;;;;;5055562;28;61732;-76
2022/10/17 04:54:06;;;;;;;;;5.25;4.25;;;;;;;;5062321;28;61858;-76
2022/10/17 04:56:31;;;;;;;;;5.00;5.00;;;;;;;;5061804;28;61854;-76
2022/10/17 04:59:01;;;;;;;;;5.00;3.67;;;;;;;;5044034;28;62251;-76
2022/10/17 05:01:26;;;;;;;;;5.00;5.00;;;;;;;;5062405;28;62015;-76
2022/10/17 05:03:52;;;;;;;;;4.25;4.25;;;;;;;;5061705;28;62178;-77
2022/10/17 05:06:21;;;;;;;;;4.75;4.75;;;;;;;;5061810;28;61908;-77
2022/10/17 05:08:47;;;;;;;;;6.75;5.00;;;;;;;;5043794;28;62022;-77
2022/10/17 05:11:30;;;;;;;;;5.00;4.00;;;;;;;;5061778;28;61817;-77
2022/10/17 05:13:56;;;;;;;;;3.75;3.50;;;;;;;;5061984;28;61758;-78
2022/10/17 05:16:24;;;;;;;;;3.75;3.75;;;;;;;;5043186;28;63999;-78
2022/10/17 05:18:54;;;;;;;;;5.00;5.00;;;;;;;;5062347;28;61989;-79
2022/10/17 05:21:21;;;;;;;;;4.75;3.75;;;;;;;;5044165;28;61839;-78
2022/10/17 05:23:46;;;;;;;;;5.75;4.75;;;;;;;;5051933;28;62370;-78
2022/10/17 05:26:12;;;;;;;;;7.50;6.00;;;;;;;;5041181;28;62866;-78
2022/10/17 05:28:37;;;;;;;;;5.00;5.00;;;;;;;;5050425;28;61711;-78
2022/10/17 05:31:10;;;;;;;;;6.25;3.75;;;;;;;;5061486;28;62078;-78
2022/10/17 05:33:36;;;;;;;;;7.33;4.00;;;;;;;;5043050;28;62246;-78
2022/10/17 05:36:01;;;;;;;;;7.00;4.33;;;;;;;;5042848;28;63562;-79
2022/10/17 05:38:27;;;;;;;;;6.00;4.50;;;;;;;;5061021;28;61736;-81
2022/10/17 05:40:59;;;;;;;;;3.50;3.00;;;;;;;;5024032;28;61983;-82
2022/10/17 05:43:24;;;;;;;;;5.00;4.00;;;;;;;;5023807;28;61688;-82
2022/10/17 05:45:50;;;;;;;;;7.75;5.00;;;;;;;;5022570;28;63862;-82
2022/10/17 05:48:15;;;;;;;;;7.50;4.75;;;;;;;;5041115;28;61754;-82
2022/10/17 05:50:40;;;;;;;;;6.50;5.25;;;;;;;;5044436;28;62212;-83
2022/10/17 05:53:06;;;;;;;;;10.00;7.00;;;;;;;;5044137;28;62314;-83
2022/10/17 05:55:31;;;;;;;;;9.25;5.00;;;;;;;;5046317;28;64979;-83
2022/10/17 05:57:58;;;;;;;;;9.00;6.25;;;;;;;;5046655;28;62042;-82
2022/10/17 06:00:24;;;;;;;;;12.25;11.25;;;;;;;;5065078;28;61963;-81
2022/10/17 06:02:49;;;;;;;;;10.00;7.00;;;;;;;;5052277;28;62030;-80
2022/10/17 06:05:14;;;;;;;;;6.00;6.00;;;;;;;;5025007;28;64843;-79
2022/10/17 06:07:40;;;;;;;;;5.00;5.00;;;;;;;;5044015;28;62463;-79
2022/10/17 06:10:05;;;;;;;;;5.25;5.25;;;;;;;;5042981;28;61794;-81
2022/10/17 06:12:31;;;;;;;;;6.50;5.75;;;;;;;;5039997;28;62081;-78
2022/10/17 06:14:56;;;;;;;;;4.75;4.75;;;;;;;;5052956;28;62352;-79
2022/10/17 06:17:21;;;;;;;;;7.75;5.50;;;;;;;;5053651;28;62125;-78
2022/10/17 06:19:47;;;;;;;;;7.00;4.00;;;;;;;;5034214;28;61867;-78
2022/10/17 06:22:12;;;;;;;;;6.50;6.50;;;;;;;;5033836;28;61863;-78
2022/10/17 06:24:38;;;;;;;;;6.50;5.25;;;;;;;;5058443;28;62052;-78
2022/10/17 06:27:03;;;;;;;;;5.75;5.25;;;;;;;;5025885;28;61844;-79
2022/10/17 06:29:28;;;;;;;;;10.25;8.00;;;;;;;;5044198;28;61767;-78
2022/10/17 06:31:54;;;;;;;;;6.50;5.75;;;;;;;;5044443;28;61985;-78
2022/10/17 06:34:19;;;;;;;;;6.00;4.50;;;;;;;;5043405;28;62128;-78
2022/10/17 06:36:44;;;;;;;;;5.75;5.00;;;;;;;;5043914;28;61908;-78
2022/10/17 06:39:09;;;;;;;;;9.25;5.25;;;;;;;;5043910;28;62320;-78
2022/10/17 06:41:35;;;;;;;;;5.00;5.00;;;;;;;;5044299;28;61942;-78
2022/10/17 06:44:00;;;;;;;;;6.00;5.50;;;;;;;;5043309;28;61786;-77
2022/10/17 06:46:28;;;;;;;;;7.00;5.75;;;;;;;;5025755;28;61816;-78
2022/10/17 06:48:53;;;;;;;;;7.00;5.75;;;;;;;;5043654;28;62310;-77
2022/10/17 06:51:19;;;;;;;;;5.00;4.00;;;;;;;;5048500;28;61854;-78
2022/10/17 06:53:44;;;;;;;;;4.00;4.00;;;;;;;;5024352;28;64887;-78
2022/10/17 06:56:09;;;;;;;;;6.00;5.00;;;;;;;;5023738;28;61768;-78
2022/10/17 06:58:37;;;;;;;;;5.50;5.00;;;;;;;;5022202;28;62275;-78
2022/10/17 07:01:12;;;;;;;;;5.75;5.75;;;;;;;;5022509;28;61862;-77
2022/10/17 07:03:37;;;;;;;;;4.75;4.75;;;;;;;;5022479;28;63266;-77
2022/10/17 07:06:03;;;;;;;;;4.75;3.50;;;;;;;;5010984;28;61950;-77
2022/10/17 07:08:29;;;;;;;;;4.50;4.50;;;;;;;;5001389;28;61805;-78
2022/10/17 07:10:54;;;;;;;;;5.00;5.00;;;;;;;;5002284;28;61892;-78
2022/10/17 07:13:20;;;;;;;;;3.50;3.50;;;;;;;;5002459;28;61825;-78
2022/10/17 07:15:45;;;;;;;;;4.00;3.00;;;;;;;;5001567;28;62089;-77
2022/10/17 07:18:11;;;;;;;;;5.00;4.50;;;;;;;;5002353;28;61991;-77
2022/10/17 07:20:36;;;;;;;;;10.25;7.50;;;;;;;;5002987;28;62121;-77
2022/10/17 07:23:01;;;;;;;;;9.25;5.75;;;;;;;;5001489;28;61870;-77
2022/10/17 07:25:27;;;;;;;;;5.25;3.50;;;;;;;;5002028;28;61875;-78
2022/10/17 07:27:52;;;;;;;;;5.25;4.25;;;;;;;;5000159;28;61924;-78
2022/10/17 07:30:18;;;;;;;;;6.33;5.33;;;;;;;;5008054;28;62071;-77
2022/10/17 07:32:44;;;;;;;;;5.50;4.75;;;;;;;;5013210;28;61866;-77
2022/10/17 07:35:10;;;;;;;;;6.00;5.50;;;;;;;;5014675;28;62156;-77
2022/10/17 07:37:36;;;;;;;;;4.67;4.67;;;;;;;;5021887;28;61932;-77
2022/10/17 07:40:02;;;;;;;;;7.50;5.25;;;;;;;;5023450;28;61724;-77
2022/10/17 07:42:27;;;;;;;;;6.50;5.75;;;;;;;;5022482;28;62005;-77
2022/10/17 07:44:53;;;;;;;;;6.00;6.00;;;;;;;;5023395;28;61929;-77
2022/10/17 07:47:18;;;;;;;;;3.50;3.50;;;;;;;;5021368;28;62515;-77
2022/10/17 07:49:44;;;;;;;;;5.50;5.25;;;;;;;;5021579;28;61747;-77
2022/10/17 07:52:12;;;;;;;;;7.50;6.25;;;;;;;;5013402;28;63647;-77
2022/10/17 07:54:38;;;;;;;;;7.00;6.25;;;;;;;;5003312;28;62059;-77
2022/10/17 07:57:03;;;;;;;;;7.00;6.00;;;;;;;;5003218;28;61831;-77
2022/10/17 07:59:28;;;;;;;;;10.50;10.00;;;;;;;;5003010;28;62050;-77
2022/10/17 08:01:54;;;;;;;;;6.67;6.00;;;;;;;;5000988;28;63763;-77
2022/10/17 08:04:19;;;;;;;;;4.33;4.33;;;;;;;;5002409;28;62041;-77
2022/10/17 08:06:45;;;;;;;;;6.00;5.00;;;;;;;;5003311;28;62120;-77
2022/10/17 08:09:10;;;;;;;;;6.67;4.33;;;;;;;;5003020;28;61811;-77
2022/10/17 08:11:36;;;;;;;;;5.00;4.00;;;;;;;;5000709;28;63741;-77
2022/10/17 08:14:01;;;;;;;;;6.00;3.67;;;;;;;;5001493;28;61943;-77
2022/10/17 08:16:26;;;;;;;;;6.67;5.33;;;;;;;;5001514;28;61682;-77
2022/10/17 08:18:51;;;;;;;;;6.00;6.00;;;;;;;;5001512;28;61910;-77
2022/10/17 08:21:17;;;;;;;;;5.67;4.67;;;;;;;;4999774;28;63958;-77
2022/10/17 08:23:42;;;;;;;;;5.67;4.00;;;;;;;;5001682;28;62134;-78
2022/10/17 08:26:09;;;;;;;;;2.67;1.00;;;;;;;;5002819;28;62026;-77
2022/10/17 08:28:35;;;;;;;;;4.00;4.00;;;;;;;;5000697;28;61874;-77
2022/10/17 08:31:10;;;;;;;;;4.67;3.67;;;;;;;;4999609;28;64689;-77
2022/10/17 08:33:36;;;;;;;;;4.33;4.00;;;;;;;;5001227;28;61694;-77
2022/10/17 08:36:02;;;;;;;;;5.00;3.33;;;;;;;;5000554;28;61737;-77
2022/10/17 08:38:28;;;;;;;;;3.67;3.00;;;;;;;;5002030;28;62087;-77
2022/10/17 08:40:56;;;;;;;;;4.33;3.67;;;;;;;;5001362;28;62895;-77
2022/10/17 08:43:37;;;;;;;;;5.67;4.67;;;;;;;;5000117;28;61948;-77
2022/10/17 08:46:04;;;;;;;;;4.00;4.00;;;;;;;;4998458;28;61766;-77
2022/10/17 08:48:36;;;;;;;;;5.00;5.00;;;;;;;;5001222;28;62099;-77
2022/10/17 08:51:05;;;;;;;;;7.00;4.00;;;;;;;;4999226;28;62543;-77
2022/10/17 08:53:51;;;;;;;;;6.33;4.33;;;;;;;;5033425;28;61830;-77
2022/10/17 08:56:16;;;;;;;;;6.00;4.00;;;;;;;;5022584;28;61859;-77
2022/10/17 08:58:41;;;;;;;;;6.33;3.33;;;;;;;;5041439;28;61958;-76
2022/10/17 09:01:25;;;;;;;;;4.67;4.67;;;;;;;;5039720;28;62783;-77
2022/10/17 09:04:08;;;;;;;;;8.00;4.67;;;;;;;;5038865;28;62027;-77
2022/10/17 09:06:36;;;;;;;;;4.00;3.00;;;;;;;;5041706;28;61775;-77
2022/10/17 09:09:04;;;;;;;;;5.00;3.33;;;;;;;;5041893;28;61854;-76
2022/10/17 09:11:48;;;;;;;;;5.00;4.00;;;;;;;;5031898;28;63422;-77
2022/10/17 09:14:37;;;;;;;;;3.67;3.67;;;;;;;;5020204;28;62408;-77
2022/10/17 09:17:02;;;;;;;;;9.00;7.00;;;;;;;;5041136;28;61841;-76
2022/10/17 09:19:31;;;;;;;;;6.00;5.00;;;;;;;;5041286;28;61929;-77
2022/10/17 09:22:02;;;;;;;;;4.00;4.00;;;;;;;;5037207;28;63863;-76
2022/10/17 09:24:45;;;;;;;;;4.33;3.33;;;;;;;;5041162;28;61728;-77
2022/10/17 09:27:16;;;;;;;;;6.33;3.00;;;;;;;;5042736;28;61942;-77
2022/10/17 09:29:43;;;;;;;;;4.33;3.00;;;;;;;;5043722;28;61879;-77
2022/10/17 09:32:18;;;;;;;;;7.33;4.33;;;;;;;;5026054;28;64993;-77
2022/10/17 09:34:43;;;;;;;;;4.00;4.00;;;;;;;;5026287;28;61810;-77
2022/10/17 09:37:12;;;;;;;;;4.33;4.33;;;;;;;;5044691;28;61835;-77
2022/10/17 09:39:37;;;;;;;;;3.00;3.00;;;;;;;;5044410;28;61809;-77
2022/10/17 09:42:02;;;;;;;;;4.67;3.00;;;;;;;;5045740;28;62726;-76
2022/10/17 09:44:38;;;;;;;;;5.33;4.00;;;;;;;;5043462;28;61739;-76
2022/10/17 09:47:22;;;;;;;;;5.00;5.00;;;;;;;;5026675;28;61913;-76
2022/10/17 09:49:48;;;;;;;;;8.67;5.67;;;;;;;;5026402;28;61832;-76
2022/10/17 09:52:14;;;;;;;;;4.67;4.67;;;;;;;;5043253;28;62004;-76
2022/10/17 09:54:46;;;;;;;;;6.67;5.00;;;;;;;;5044023;28;61742;-76
2022/10/17 09:57:12;;;;;;;;;5.00;5.00;;;;;;;;5026589;28;61979;-77
2022/10/17 09:59:40;;;;;;;;;5.67;5.67;;;;;;;;5044083;28;61876;-77
2022/10/17 10:02:12;;;;;;;;;5.25;5.25;;;;;;;;5043480;28;62127;-77
2022/10/17 10:04:50;;;;;;;;;5.00;4.00;;;;;;;;5009239;28;61856;-77
2022/10/17 10:07:17;;;;;;;;;7.25;6.00;;;;;;;;5044449;28;62005;-77
2022/10/17 10:09:45;;;;;;;;;6.75;5.75;;;;;;;;5026185;28;62509;-76
2022/10/17 10:12:21;;;;;;;;;4.33;4.33;;;;;;;;5043551;28;61932;-76
2022/10/17 10:14:46;;;;;;;;;6.67;3.67;;;;;;;;5043681;28;61872;-76
2022/10/17 10:17:30;;;;;;;;;6.25;5.50;;;;;;;;5044321;28;61783;-76
2022/10/17 10:19:55;;;;;;;;;7.75;6.00;;;;;;;;5043441;28;61874;-76
2022/10/17 10:22:24;;;;;;;;;7.00;5.67;;;;;;;;5040637;28;61912;-76
2022/10/17 10:25:08;;;;;;;;;6.75;6.75;;;;;;;;5043128;28;61885;-76
2022/10/17 10:27:34;;;;;;;;;7.25;4.75;;;;;;;;5020378;28;61802;-76
2022/10/17 10:30:00;;;;;;;;;6.75;5.00;;;;;;;;5043630;28;61787;-77
2022/10/17 10:32:27;;;;;;;;;5.00;5.00;;;;;;;;5025163;28;63580;-76
2022/10/17 10:34:59;;;;;;;;;8.00;8.00;;;;;;;;5043999;28;61842;-76
2022/10/17 10:37:26;;;;;;;;;13.25;10.00;;;;;;;;5042668;28;61980;-76
2022/10/17 10:39:56;;;;;;;;;7.67;6.00;;;;;;;;5043292;28;61962;-76
2022/10/17 10:42:21;;;;;;;;;5.33;4.33;;;;;;;;5042576;28;62601;-76
2022/10/17 10:44:47;;;;;;;;;8.00;6.25;;;;;;;;5025771;28;61904;-76
2022/10/17 10:47:18;;;;;;;;;10.00;7.25;;;;;;;;5044287;28;61725;-76
2022/10/17 10:49:44;;;;;;;;;6.50;5.00;;;;;;;;5025529;28;61904;-76
2022/10/17 10:52:30;;;;;;;;;8.75;7.50;;;;;;;;5024983;28;65047;-76
2022/10/17 10:55:02;;;;;;;;;9.50;8.00;;;;;;;;5024002;28;61721;-76
2022/10/17 10:57:29;;;;;;;;;8.50;6.50;;;;;;;;5022475;28;61879;-76
2022/10/17 11:00:04;;;;;;;;;9.25;7.00;;;;;;;;5023933;28;61836;-76
2022/10/17 11:02:39;;;;;;;;;7.75;6.00;;;;;;;;5022896;28;62592;-76
2022/10/17 11:05:13;;;;;;;;;7.75;5.75;;;;;;;;5022369;28;62367;-76
2022/10/17 11:07:45;;;;;;;;;10.67;8.00;;;;;;;;5022229;28;61839;-76
2022/10/17 11:10:14;;;;;;;;;7.25;6.00;;;;;;;;5023764;28;62179;-76
2022/10/17 11:12:49;;;;;;;;;8.00;6.00;;;;;;;;5022476;28;62012;-76
2022/10/17 11:15:14;;;;;;;;;10.75;7.25;;;;;;;;5023716;28;61935;-76
2022/10/17 11:18:06;;;;;;;;;8.67;6.67;;;;;;;;5024683;28;61945;-75
2022/10/17 11:20:31;;;;;;;;;9.75;8.00;;;;;;;;5036843;28;61799;-76
2022/10/17 11:23:02;;;;;;;;;9.33;6.33;;;;;;;;5042072;28;62775;-76
2022/10/17 11:25:32;;;;;;;;;7.00;7.00;;;;;;;;5043649;28;61670;-76
2022/10/17 11:27:57;;;;;;;;;7.00;6.50;;;;;;;;5025191;28;61892;-76
2022/10/17 11:30:25;;;;;;;;;9.25;7.25;;;;;;;;5031669;28;61976;-77
2022/10/17 11:32:59;;;;;;;;;6.75;6.75;;;;;;;;5050635;28;61744;-77
2022/10/17 11:35:39;;;;;;;;;8.67;7.33;;;;;;;;5050828;28;61862;-78
2022/10/17 11:38:07;;;;;;;;;8.25;7.50;;;;;;;;5047437;28;61700;-77
2022/10/17 11:40:34;;;;;;;;;9.67;6.33;;;;;;;;5031833;28;61953;-77
2022/10/17 11:43:08;;;;;;;;;10.67;8.33;;;;;;;;5050404;28;62460;-77
2022/10/17 11:45:38;;;;;;;;;8.25;7.00;;;;;;;;5052765;28;61864;-77
2022/10/17 11:48:05;;;;;;;;;9.00;7.00;;;;;;;;5033668;28;61799;-77
2022/10/17 11:50:36;;;;;;;;;11.00;6.25;;;;;;;;5031026;28;61919;-77
2022/10/17 11:53:15;;;;;;;;;7.00;4.00;;;;;;;;5051252;28;62798;-78
2022/10/17 11:55:41;;;;;;;;;9.00;6.33;;;;;;;;5029166;28;62018;-77
2022/10/17 11:58:18;;;;;;;;;9.00;7.00;;;;;;;;5033061;28;61818;-78
2022/10/17 12:00:47;;;;;;;;;5.33;5.33;;;;;;;;5030130;28;61952;-78
2022/10/17 12:03:20;;;;;;;;;6.33;5.00;;;;;;;;5050125;28;61854;-78
2022/10/17 12:05:58;;;;;;;;;7.00;7.00;;;;;;;;5032365;28;61860;-77
2022/10/17 12:08:39;;;;;;;;;7.67;7.33;;;;;;;;5029895;28;61958;-77
2022/10/17 12:11:04;;;;;;;;;7.67;6.00;;;;;;;;5030016;28;61845;-77
2022/10/17 12:13:32;;;;;;;;;7.67;6.67;;;;;;;;5050619;28;62766;-77
2022/10/17 12:16:18;;;;;;;;;13.67;6.33;;;;;;;;5051863;28;61841;-77
2022/10/17 12:18:43;;;;;;;;;9.00;8.33;;;;;;;;5031463;28;61795;-78
2022/10/17 12:21:08;;;;;;;;;7.67;7.00;;;;;;;;5062729;28;61684;-76
2022/10/17 12:23:37;;;;;;;;;7.00;6.00;;;;;;;;5053665;28;63122;-76
2022/10/17 12:26:04;;;;;;;;;7.00;7.00;;;;;;;;5024280;28;61760;-77
2022/10/17 12:28:30;;;;;;;;;6.33;6.00;;;;;;;;5042192;28;61805;-77
2022/10/17 12:31:05;;;;;;;;;8.67;8.00;;;;;;;;5025603;28;62008;-77
2022/10/17 12:33:30;;;;;;;;;10.00;6.00;;;;;;;;5042844;28;62101;-77
2022/10/17 12:36:14;;;;;;;;;8.00;7.00;;;;;;;;5033007;28;62127;-77
2022/10/17 12:38:39;;;;;;;;;10.00;9.00;;;;;;;;5048425;28;62295;-76
2022/10/17 12:41:05;;;;;;;;;7.00;7.00;;;;;;;;5032159;28;61809;-77
2022/10/17 12:43:34;;;;;;;;;10.50;6.00;;;;;;;;5032310;28;64267;-77
2022/10/17 12:46:03;;;;;;;;;7.00;5.33;;;;;;;;5050805;28;61998;-77
2022/10/17 12:48:37;;;;;;;;;8.33;7.33;;;;;;;;5030926;28;62018;-77
2022/10/17 12:51:02;;;;;;;;;9.00;7.67;;;;;;;;5049767;28;62116;-77
2022/10/17 12:53:36;;;;;;;;;7.67;6.67;;;;;;;;5031164;28;63977;-77
2022/10/17 12:56:03;;;;;;;;;7.33;5.00;;;;;;;;5049749;28;61789;-76
2022/10/17 12:58:29;;;;;;;;;6.33;5.00;;;;;;;;5050294;28;61830;-76
2022/10/17 13:00:56;;;;;;;;;6.33;6.33;;;;;;;;5049620;28;61815;-77
2022/10/17 13:03:24;;;;;;;;;5.33;5.33;;;;;;;;5023037;28;63827;-76
2022/10/17 13:05:55;;;;;;;;;5.67;5.00;;;;;;;;5023342;28;62068;-76
2022/10/17 13:08:22;;;;;;;;;5.00;5.00;;;;;;;;5041589;28;61630;-76
2022/10/17 13:10:49;;;;;;;;;6.67;5.00;;;;;;;;5041883;28;61968;-76
2022/10/17 13:13:32;;;;;;;;;6.00;6.00;;;;;;;;5022688;28;63660;-76
2022/10/17 13:15:58;;;;;;;;;6.00;5.33;;;;;;;;5042332;28;61672;-76
2022/10/17 13:18:24;;;;;;;;;6.00;6.00;;;;;;;;5049604;28;61892;-76
2022/10/17 13:21:13;;;;;;;;;7.67;6.00;;;;;;;;5033153;28;61909;-76
2022/10/17 13:23:38;;;;;;;;;6.67;5.33;;;;;;;;5038574;28;62041;-76
2022/10/17 13:26:12;;;;;;;;;8.00;6.00;;;;;;;;5031441;28;61831;-76
2022/10/17 13:28:38;;;;;;;;;6.33;5.67;;;;;;;;5047703;28;61758;-76
2022/10/17 13:31:03;;;;;;;;;8.33;6.33;;;;;;;;5049769;28;62126;-76
2022/10/17 13:33:31;;;;;;;;;7.67;6.00;;;;;;;;5032135;28;63673;-76
2022/10/17 13:35:57;;;;;;;;;9.00;7.67;;;;;;;;5028555;28;61933;-76
2022/10/17 13:38:24;;;;;;;;;9.00;6.67;;;;;;;;5031789;28;61751;-76
2022/10/17 13:40:50;;;;;;;;;4.00;4.00;;;;;;;;5033256;28;62168;-76
2022/10/17 13:43:17;;;;;;;;;4.33;4.33;;;;;;;;5048236;28;62290;-76
2022/10/17 13:45:48;;;;;;;;;6.00;6.00;;;;;;;;5048875;28;61991;-76
2022/10/17 13:48:18;;;;;;;;;6.67;6.00;;;;;;;;5030302;28;61938;-76
2022/10/17 13:50:48;;;;;;;;;11.67;7.33;;;;;;;;5031670;28;62076;-76
2022/10/17 13:53:20;;;;;;;;;7.67;6.00;;;;;;;;5048715;28;62513;-76
2022/10/17 13:55:51;;;;;;;;;7.00;7.00;;;;;;;;5031187;28;61823;-76
2022/10/17 13:58:17;;;;;;;;;9.00;7.67;;;;;;;;5028779;28;62064;-76
2022/10/17 14:00:45;;;;;;;;;6.33;6.33;;;;;;;;5050184;28;61894;-76
2022/10/17 14:03:11;;;;;;;;;6.33;5.67;;;;;;;;5049946;28;61691;-76
2022/10/17 14:05:56;;;;;;;;;8.33;7.33;;;;;;;;5048932;28;61739;-76
2022/10/17 14:08:21;;;;;;;;;7.00;5.67;;;;;;;;5030099;28;61832;-76
2022/10/17 14:10:47;;;;;;;;;8.00;5.67;;;;;;;;5033623;28;61759;-76
2022/10/17 14:13:34;;;;;;;;;8.00;5.33;;;;;;;;5048462;28;61729;-76
2022/10/17 14:16:01;;;;;;;;;5.33;5.33;;;;;;;;5053405;28;61826;-76
2022/10/17 14:18:28;;;;;;;;;8.67;7.67;;;;;;;;5051881;28;61955;-76
2022/10/17 14:20:53;;;;;;;;;5.67;5.67;;;;;;;;5052644;28;61964;-76
2022/10/17 14:23:30;;;;;;;;;7.00;5.33;;;;;;;;5054821;28;63008;-76
2022/10/17 14:26:16;;;;;;;;;8.67;7.33;;;;;;;;5050671;28;62008;-76
2022/10/17 14:28:43;;;;;;;;;8.00;6.67;;;;;;;;5053474;28;61811;-76
2022/10/17 14:31:12;;;;;;;;;4.67;4.67;;;;;;;;5050338;28;61842;-76
2022/10/17 14:33:42;;;;;;;;;9.00;8.00;;;;;;;;5050396;28;61945;-76
2022/10/17 14:36:07;;;;;;;;;5.00;5.00;;;;;;;;5035832;28;62115;-75
2022/10/17 14:38:34;;;;;;;;;9.00;7.00;;;;;;;;5051796;28;61993;-76
2022/10/17 14:41:03;;;;;;;;;5.33;5.00;;;;;;;;5033495;28;61981;-76
2022/10/17 14:43:29;;;;;;;;;9.33;7.67;;;;;;;;5033884;28;63817;-76
2022/10/17 14:45:58;;;;;;;;;10.67;7.67;;;;;;;;5034897;28;61939;-76
2022/10/17 14:48:25;;;;;;;;;7.50;6.50;;;;;;;;5032259;28;61933;-76
2022/10/17 14:51:09;;;;;;;;;6.33;6.33;;;;;;;;5043854;28;61799;-76
2022/10/17 14:53:34;;;;;;;;;9.33;5.67;;;;;;;;5042882;28;63294;-75